Time;durP1;ratioP1;P1;durP2;ratioP2;P2;SDS_P1;SDS_P2;PMS_P1;PMS_P2;Temp;Humidity;BMP_temperature;BMP_pressure;BME280_temperature;BME280_humidity;BME280_pressure;Samples;Min_cycle;Max_cycle;Signal;HPM_P1;HPM_P2
2023/11/14 00:00:47;;;;;;;11.50;4.43;;;;;;;;;;5108377;27;20619;-79
2023/11/14 00:03:13;;;;;;;14.77;4.17;;;;;;;;;;5114379;27;21080;-79
2023/11/14 00:05:39;;;;;;;12.23;3.27;;;;;;;;;;5119056;27;20524;-78
2023/11/14 00:08:07;;;;;;;10.40;4.90;;;;;;;;;;5122747;27;20529;-76
2023/11/14 00:10:34;;;;;;;19.63;4.50;;;;;;;;;;5123682;27;20497;-76
2023/11/14 00:13:00;;;;;;;10.17;3.60;;;;;;;;;;5126239;27;21020;-78
2023/11/14 00:15:27;;;;;;;19.60;5.23;;;;;;;;;;5127788;27;20529;-75
2023/11/14 00:17:53;;;;;;;13.70;5.07;;;;;;;;;;5121331;27;20480;-76
2023/11/14 00:20:20;;;;;;;11.13;4.20;;;;;;;;;;5121250;27;20453;-77
2023/11/14 00:22:46;;;;;;;15.33;5.17;;;;;;;;;;5125402;27;20501;-81
2023/11/14 00:25:14;;;;;;;19.27;5.03;;;;;;;;;;5123504;27;20498;-78
2023/11/14 00:27:40;;;;;;;17.23;4.20;;;;;;;;;;5125536;27;20460;-79
2023/11/14 00:30:07;;;;;;;14.87;5.13;;;;;;;;;;5119107;27;20463;-79
2023/11/14 00:32:34;;;;;;;18.67;5.30;;;;;;;;;;5108052;27;20608;-81
2023/11/14 00:35:00;;;;;;;10.87;4.20;;;;;;;;;;5118494;27;20454;-80
2023/11/14 00:37:27;;;;;;;20.03;5.00;;;;;;;;;;5124052;27;20482;-77
2023/11/14 00:39:54;;;;;;;11.57;4.07;;;;;;;;;;5121138;27;20454;-79
2023/11/14 00:42:22;;;;;;;12.17;3.90;;;;;;;;;;5123291;27;20525;-79
2023/11/14 00:44:49;;;;;;;15.00;4.83;;;;;;;;;;5124797;27;20453;-79
2023/11/14 00:47:16;;;;;;;14.30;5.33;;;;;;;;;;5121563;27;20622;-77
2023/11/14 00:49:42;;;;;;;12.60;4.30;;;;;;;;;;5108479;27;21521;-79
2023/11/14 00:52:09;;;;;;;14.83;5.17;;;;;;;;;;5117198;27;20465;-80
2023/11/14 00:54:35;;;;;;;16.77;5.57;;;;;;;;;;5112590;27;20515;-82
2023/11/14 00:57:02;;;;;;;15.03;3.87;;;;;;;;;;5118986;27;20465;-83
2023/11/14 00:59:30;;;;;;;13.93;3.90;;;;;;;;;;5108724;27;20456;-81
2023/11/14 01:01:58;;;;;;;32.33;5.63;;;;;;;;;;5118013;27;20442;-83
2023/11/14 01:04:25;;;;;;;15.23;5.47;;;;;;;;;;5111848;27;20519;-81
2023/11/14 01:06:51;;;;;;;18.50;5.30;;;;;;;;;;5120932;27;20573;-82
2023/11/14 01:09:17;;;;;;;8.70;3.57;;;;;;;;;;5104327;27;20550;-82
2023/11/14 01:11:44;;;;;;;11.20;3.63;;;;;;;;;;5120980;27;20477;-83
2023/11/14 01:14:10;;;;;;;14.77;4.77;;;;;;;;;;5125626;27;20450;-80
2023/11/14 01:16:38;;;;;;;14.63;4.10;;;;;;;;;;5125010;27;20454;-80
2023/11/14 01:19:05;;;;;;;17.20;4.83;;;;;;;;;;5124231;27;21319;-81
2023/11/14 01:21:31;;;;;;;10.47;4.10;;;;;;;;;;5119461;27;20485;-79
2023/11/14 01:23:58;;;;;;;18.37;4.73;;;;;;;;;;5109908;27;20473;-80
2023/11/14 01:26:24;;;;;;;14.87;5.37;;;;;;;;;;5119980;27;20445;-78
2023/11/14 01:28:51;;;;;;;21.00;5.57;;;;;;;;;;5125481;27;20524;-76
2023/11/14 01:31:21;;;;;;;15.10;4.43;;;;;;;;;;5124122;27;20525;-78
2023/11/14 01:33:49;;;;;;;15.57;4.63;;;;;;;;;;5124099;27;20454;-78
2023/11/14 01:36:15;;;;;;;19.33;5.67;;;;;;;;;;5107782;27;20950;-79
2023/11/14 01:38:42;;;;;;;18.40;5.43;;;;;;;;;;5119464;27;20518;-78
2023/11/14 01:41:08;;;;;;;12.33;4.43;;;;;;;;;;5116667;27;20474;-77
2023/11/14 01:43:41;;;;;;;18.70;4.60;;;;;;;;;;5120704;27;20501;-75
2023/11/14 01:46:09;;;;;;;14.33;4.70;;;;;;;;;;5120103;27;20515;-76
2023/11/14 01:48:35;;;;;;;16.47;5.00;;;;;;;;;;5114372;27;20529;-81
2023/11/14 01:51:03;;;;;;;14.37;5.67;;;;;;;;;;5112943;27;20502;-80
2023/11/14 01:53:30;;;;;;;17.70;4.57;;;;;;;;;;5113873;27;20554;-78
2023/11/14 01:55:56;;;;;;;11.87;4.97;;;;;;;;;;5108746;27;20474;-81
2023/11/14 01:58:23;;;;;;;11.37;5.90;;;;;;;;;;5124905;27;20542;-78
2023/11/14 02:00:50;;;;;;;20.67;4.40;;;;;;;;;;5113315;27;20474;-78
2023/11/14 02:03:17;;;;;;;17.20;4.67;;;;;;;;;;5118612;27;20461;-77
2023/11/14 02:05:44;;;;;;;15.83;4.40;;;;;;;;;;5119411;27;20525;-79
2023/11/14 02:08:11;;;;;;;13.77;4.47;;;;;;;;;;5122636;27;20500;-78
2023/11/14 02:10:38;;;;;;;11.63;3.93;;;;;;;;;;5124744;27;20457;-80
2023/11/14 02:13:05;;;;;;;25.40;4.20;;;;;;;;;;5115174;27;20979;-81
2023/11/14 02:15:32;;;;;;;9.70;4.27;;;;;;;;;;5112558;27;20459;-82
2023/11/14 02:17:58;;;;;;;13.40;4.23;;;;;;;;;;5107805;27;20458;-76
2023/11/14 02:20:24;;;;;;;20.03;3.27;;;;;;;;;;5113025;27;20448;-80
2023/11/14 02:22:51;;;;;;;15.53;4.83;;;;;;;;;;5125711;27;20480;-80
2023/11/14 02:25:19;;;;;;;11.23;4.83;;;;;;;;;;5108506;27;20454;-81
2023/11/14 02:27:46;;;;;;;17.27;4.03;;;;;;;;;;5116696;27;20450;-78
2023/11/14 02:30:13;;;;;;;16.23;3.60;;;;;;;;;;5129709;27;21117;-80
2023/11/14 02:32:39;;;;;;;9.53;3.30;;;;;;;;;;5115693;27;20596;-75
2023/11/14 02:35:06;;;;;;;17.63;4.90;;;;;;;;;;5108063;28;20546;-76
2023/11/14 02:37:33;;;;;;;14.10;4.50;;;;;;;;;;5104626;27;20450;-79
2023/11/14 02:40:00;;;;;;;16.73;4.30;;;;;;;;;;5116549;28;20477;-78
2023/11/14 02:42:28;;;;;;;21.70;4.57;;;;;;;;;;5117023;27;20453;-77
2023/11/14 02:44:54;;;;;;;22.13;4.77;;;;;;;;;;5120749;27;20506;-82
2023/11/14 02:47:20;;;;;;;19.13;3.87;;;;;;;;;;5124212;27;20454;-79
2023/11/14 02:49:52;;;;;;;12.47;4.40;;;;;;;;;;5109315;28;20462;-77
2023/11/14 02:52:19;;;;;;;13.23;4.70;;;;;;;;;;5114206;27;21148;-79
2023/11/14 02:54:45;;;;;;;22.43;4.97;;;;;;;;;;5125090;28;20513;-77
2023/11/14 02:57:12;;;;;;;17.40;3.53;;;;;;;;;;5113841;28;20509;-77
2023/11/14 02:59:40;;;;;;;17.47;4.23;;;;;;;;;;5114645;28;20488;-80
2023/11/14 03:02:06;;;;;;;11.03;2.80;;;;;;;;;;5118435;28;20470;-79
2023/11/14 03:04:33;;;;;;;13.27;3.90;;;;;;;;;;5104748;28;20467;-76
2023/11/14 03:07:00;;;;;;;12.83;4.53;;;;;;;;;;5114923;28;20481;-79
2023/11/14 03:09:27;;;;;;;16.07;3.27;;;;;;;;;;5113458;28;20462;-79
2023/11/14 03:11:53;;;;;;;16.43;4.17;;;;;;;;;;5107090;28;20516;-79
2023/11/14 03:14:20;;;;;;;16.00;4.30;;;;;;;;;;5122144;28;20449;-79
2023/11/14 03:16:48;;;;;;;11.00;5.07;;;;;;;;;;5117458;28;20454;-77
2023/11/14 03:19:15;;;;;;;13.70;3.83;;;;;;;;;;5112768;28;20460;-80
2023/11/14 03:21:41;;;;;;;15.13;3.93;;;;;;;;;;5127983;28;20487;-76
2023/11/14 03:24:08;;;;;;;11.77;4.37;;;;;;;;;;5111987;28;20550;-79
2023/11/14 03:26:35;;;;;;;18.50;4.70;;;;;;;;;;5112661;28;20438;-79
2023/11/14 03:29:01;;;;;;;24.23;5.00;;;;;;;;;;5118300;28;20474;-80
2023/11/14 03:31:28;;;;;;;6.97;3.70;;;;;;;;;;5109389;28;20618;-80
2023/11/14 03:33:55;;;;;;;18.07;4.10;;;;;;;;;;5122464;28;20810;-78
2023/11/14 03:36:22;;;;;;;17.10;5.23;;;;;;;;;;5111346;28;20465;-79
2023/11/14 03:38:48;;;;;;;16.40;4.63;;;;;;;;;;5105524;28;20539;-78
2023/11/14 03:41:14;;;;;;;9.23;4.20;;;;;;;;;;5110964;28;21054;-78
2023/11/14 03:43:41;;;;;;;19.17;5.60;;;;;;;;;;5120224;28;20522;-78
2023/11/14 03:46:07;;;;;;;22.17;4.90;;;;;;;;;;5118865;28;20445;-72
2023/11/14 03:48:34;;;;;;;22.10;5.90;;;;;;;;;;5128685;28;20460;-74
2023/11/14 03:51:03;;;;;;;20.90;5.40;;;;;;;;;;5112593;28;20500;-76
2023/11/14 03:53:29;;;;;;;11.13;4.57;;;;;;;;;;5119959;28;20577;-76
2023/11/14 03:55:56;;;;;;;11.70;4.30;;;;;;;;;;5112556;28;20501;-76
2023/11/14 03:58:21;;;;;;;11.30;4.17;;;;;;;;;;5112114;27;20527;-79
2023/11/14 04:00:47;;;;;;;13.23;5.17;;;;;;;;;;5112245;27;21024;-76
2023/11/14 04:03:14;;;;;;;9.43;3.93;;;;;;;;;;5116551;27;20232;-76
2023/11/14 04:05:40;;;;;;;18.87;5.20;;;;;;;;;;5119081;27;20485;-79
2023/11/14 04:08:08;;;;;;;16.83;4.67;;;;;;;;;;5101159;27;20513;-78
2023/11/14 04:10:34;;;;;;;14.23;4.17;;;;;;;;;;5120788;27;21043;-76
2023/11/14 04:13:01;;;;;;;17.57;5.43;;;;;;;;;;5112018;27;20534;-79
2023/11/14 04:15:27;;;;;;;20.27;5.87;;;;;;;;;;5115951;28;20927;-78
2023/11/14 04:17:54;;;;;;;23.00;4.93;;;;;;;;;;5121915;27;20465;-77
2023/11/14 04:20:20;;;;;;;10.50;4.23;;;;;;;;;;5114182;27;20489;-79
2023/11/14 04:22:47;;;;;;;12.23;4.20;;;;;;;;;;5100793;27;20517;-79
2023/11/14 04:25:16;;;;;;;21.30;4.73;;;;;;;;;;5122200;27;20447;-78
2023/11/14 04:27:43;;;;;;;14.50;4.47;;;;;;;;;;5113340;27;20449;-77
2023/11/14 04:30:10;;;;;;;20.20;4.70;;;;;;;;;;5114118;27;20458;-78
2023/11/14 04:32:36;;;;;;;13.07;4.50;;;;;;;;;;5113921;27;20593;-76
2023/11/14 04:35:03;;;;;;;19.93;4.37;;;;;;;;;;5122683;27;21086;-80
2023/11/14 04:37:30;;;;;;;13.33;4.40;;;;;;;;;;5114585;27;20546;-75
2023/11/14 04:39:56;;;;;;;10.30;3.87;;;;;;;;;;5120963;27;20478;-75
2023/11/14 04:42:24;;;;;;;18.30;3.83;;;;;;;;;;5119707;27;20454;-80
2023/11/14 04:44:51;;;;;;;14.00;4.50;;;;;;;;;;5114043;27;20484;-78
2023/11/14 04:47:18;;;;;;;11.03;4.33;;;;;;;;;;5123943;27;20522;-75
2023/11/14 04:49:45;;;;;;;13.03;4.20;;;;;;;;;;5119809;27;20499;-78
2023/11/14 04:52:11;;;;;;;15.93;4.80;;;;;;;;;;5121133;27;20470;-76
2023/11/14 04:54:37;;;;;;;12.37;4.50;;;;;;;;;;5125441;27;20474;-77
2023/11/14 04:57:04;;;;;;;17.33;4.90;;;;;;;;;;5113852;27;20457;-79
2023/11/14 04:59:32;;;;;;;9.50;4.93;;;;;;;;;;5106043;27;20469;-81
2023/11/14 05:01:58;;;;;;;23.10;4.67;;;;;;;;;;5116927;27;20454;-75
2023/11/14 05:04:25;;;;;;;9.60;4.60;;;;;;;;;;5107079;27;20459;-76
2023/11/14 05:06:51;;;;;;;18.30;5.40;;;;;;;;;;5109634;27;20529;-77
2023/11/14 05:09:17;;;;;;;21.87;6.60;;;;;;;;;;5111918;28;20529;-78
2023/11/14 05:11:44;;;;;;;18.63;5.20;;;;;;;;;;5103929;28;20536;-79
2023/11/14 05:14:10;;;;;;;19.20;5.23;;;;;;;;;;5112085;27;20518;-80
2023/11/14 05:16:42;;;;;;;22.63;5.57;;;;;;;;;;5118802;27;20459;-75
2023/11/14 05:19:09;;;;;;;23.10;5.67;;;;;;;;;;5114476;28;20458;-81
2023/11/14 05:21:35;;;;;;;7.77;4.27;;;;;;;;;;5112311;28;20470;-81
2023/11/14 05:24:02;;;;;;;18.03;5.33;;;;;;;;;;5106335;28;20645;-79
2023/11/14 05:26:28;;;;;;;10.90;4.53;;;;;;;;;;5111958;27;20451;-80
2023/11/14 05:28:55;;;;;;;21.10;5.37;;;;;;;;;;5109079;28;20470;-83
2023/11/14 05:31:21;;;;;;;24.37;5.67;;;;;;;;;;5105016;28;20592;-77
2023/11/14 05:33:50;;;;;;;16.10;4.80;;;;;;;;;;5113824;27;20568;-79
2023/11/14 05:36:16;;;;;;;16.97;4.50;;;;;;;;;;5104929;28;20981;-75
2023/11/14 05:38:42;;;;;;;19.43;5.10;;;;;;;;;;5107805;28;20470;-81
2023/11/14 05:41:09;;;;;;;15.43;3.83;;;;;;;;;;5112610;27;20964;-79
2023/11/14 05:43:35;;;;;;;14.10;4.50;;;;;;;;;;5109724;28;20508;-77
2023/11/14 05:46:03;;;;;;;20.97;4.37;;;;;;;;;;5115917;27;21098;-79
2023/11/14 05:48:30;;;;;;;18.20;3.87;;;;;;;;;;5116738;27;20460;-78
2023/11/14 05:50:57;;;;;;;17.63;5.60;;;;;;;;;;5110961;28;20523;-78
2023/11/14 05:53:24;;;;;;;11.40;3.90;;;;;;;;;;5115230;27;20546;-76
2023/11/14 05:55:50;;;;;;;13.00;2.93;;;;;;;;;;5120440;27;20492;-75
2023/11/14 05:58:16;;;;;;;21.30;6.27;;;;;;;;;;5116067;28;20976;-76
2023/11/14 06:00:43;;;;;;;23.77;5.03;;;;;;;;;;5121740;27;20514;-80
2023/11/14 06:03:09;;;;;;;16.63;3.70;;;;;;;;;;5106703;28;20478;-76
2023/11/14 06:05:36;;;;;;;16.40;3.60;;;;;;;;;;5113865;27;20491;-75
2023/11/14 06:08:04;;;;;;;12.20;3.80;;;;;;;;;;5115594;28;20494;-78
2023/11/14 06:10:30;;;;;;;13.70;4.30;;;;;;;;;;5120828;27;20469;-76
2023/11/14 06:12:58;;;;;;;10.63;3.40;;;;;;;;;;5122422;27;20525;-78
2023/11/14 06:15:24;;;;;;;14.63;3.67;;;;;;;;;;5112085;28;20520;-79
2023/11/14 06:17:51;;;;;;;13.93;4.73;;;;;;;;;;5111124;28;20458;-78
2023/11/14 06:20:17;;;;;;;16.60;3.53;;;;;;;;;;5114086;28;20487;-77
2023/11/14 06:22:43;;;;;;;15.20;4.60;;;;;;;;;;5107967;28;20503;-78
2023/11/14 06:25:11;;;;;;;13.57;3.33;;;;;;;;;;5110957;27;20486;-77
2023/11/14 06:27:38;;;;;;;17.73;3.90;;;;;;;;;;5105885;28;20455;-78
2023/11/14 06:30:05;;;;;;;15.10;3.97;;;;;;;;;;5116134;28;20442;-74
2023/11/14 06:32:31;;;;;;;16.20;3.50;;;;;;;;;;5109845;28;20499;-76
2023/11/14 06:34:57;;;;;;;11.80;4.40;;;;;;;;;;5113518;27;20453;-78
2023/11/14 06:37:24;;;;;;;16.17;3.73;;;;;;;;;;5117750;27;20485;-78
2023/11/14 06:39:50;;;;;;;11.87;3.37;;;;;;;;;;5098995;28;20515;-78
2023/11/14 06:42:18;;;;;;;15.10;4.87;;;;;;;;;;5104316;28;20489;-80
2023/11/14 06:44:45;;;;;;;17.27;4.00;;;;;;;;;;5100634;28;20508;-81
2023/11/14 06:47:12;;;;;;;12.77;4.00;;;;;;;;;;5112072;28;20461;-82
2023/11/14 06:49:38;;;;;;;21.83;4.20;;;;;;;;;;5104190;28;20455;-74
2023/11/14 06:52:04;;;;;;;10.93;3.27;;;;;;;;;;5100268;28;20475;-79
2023/11/14 06:54:31;;;;;;;20.30;4.40;;;;;;;;;;5114619;27;20486;-79
2023/11/14 06:56:59;;;;;;;20.13;3.97;;;;;;;;;;5107784;28;21271;-76
2023/11/14 06:59:29;;;;;;;17.47;4.20;;;;;;;;;;5114864;28;20501;-77
2023/11/14 07:01:56;;;;;;;18.83;3.97;;;;;;;;;;5113565;28;20873;-80
2023/11/14 07:04:22;;;;;;;15.47;3.70;;;;;;;;;;5118050;28;20520;-80
2023/11/14 07:06:49;;;;;;;18.73;4.20;;;;;;;;;;5117774;28;20481;-80
2023/11/14 07:09:15;;;;;;;18.83;3.90;;;;;;;;;;5116016;28;20497;-76
2023/11/14 07:11:42;;;;;;;11.60;3.53;;;;;;;;;;5106454;28;20473;-74
2023/11/14 07:14:08;;;;;;;19.53;4.43;;;;;;;;;;5108094;28;20545;-75
2023/11/14 07:16:36;;;;;;;12.53;4.70;;;;;;;;;;5118191;28;20522;-73
2023/11/14 07:19:02;;;;;;;18.47;3.93;;;;;;;;;;5118058;28;20482;-73
2023/11/14 07:21:32;;;;;;;17.40;4.00;;;;;;;;;;5112936;28;20473;-71
2023/11/14 07:23:59;;;;;;;19.40;3.90;;;;;;;;;;5114464;28;20459;-71
2023/11/14 07:26:25;;;;;;;13.33;3.57;;;;;;;;;;5103195;28;20477;-70
2023/11/14 07:28:52;;;;;;;12.50;3.80;;;;;;;;;;5107464;28;20447;-70
2023/11/14 07:31:19;;;;;;;17.10;4.17;;;;;;;;;;5096157;28;21024;-70
2023/11/14 07:33:47;;;;;;;21.57;4.73;;;;;;;;;;5110947;27;20482;-68
2023/11/14 07:36:13;;;;;;;14.30;3.80;;;;;;;;;;5111819;27;20724;-68
2023/11/14 07:38:39;;;;;;;22.27;5.23;;;;;;;;;;5104297;28;20459;-70
2023/11/14 07:41:07;;;;;;;15.60;5.40;;;;;;;;;;5112250;27;20537;-68
2023/11/14 07:43:34;;;;;;;23.03;5.00;;;;;;;;;;5122051;28;20943;-70
2023/11/14 07:46:00;;;;;;;21.03;4.23;;;;;;;;;;5112308;28;20465;-71
2023/11/14 07:48:26;;;;;;;18.73;4.53;;;;;;;;;;5119968;28;20465;-69
2023/11/14 07:50:54;;;;;;;12.87;3.77;;;;;;;;;;5116434;27;20450;-71
2023/11/14 07:53:21;;;;;;;22.77;5.30;;;;;;;;;;5114818;27;20600;-71
2023/11/14 07:55:47;;;;;;;26.77;6.03;;;;;;;;;;5113566;27;20541;-71
2023/11/14 07:58:13;;;;;;;37.50;5.83;;;;;;;;;;5116470;27;20574;-73
2023/11/14 08:00:40;;;;;;;15.97;5.50;;;;;;;;;;5114152;28;20570;-69
2023/11/14 08:03:07;;;;;;;22.87;5.13;;;;;;;;;;5103305;28;20943;-69
2023/11/14 08:05:34;;;;;;;18.93;4.97;;;;;;;;;;5116693;27;20466;-73
2023/11/14 08:08:02;;;;;;;21.10;5.53;;;;;;;;;;5107401;28;20458;-72
2023/11/14 08:10:28;;;;;;;18.47;5.23;;;;;;;;;;5106882;28;20449;-70
2023/11/14 08:12:55;;;;;;;20.43;4.27;;;;;;;;;;5114108;27;20474;-69
2023/11/14 08:15:21;;;;;;;21.67;5.30;;;;;;;;;;5108308;27;20453;-73
2023/11/14 08:17:48;;;;;;;14.40;4.40;;;;;;;;;;5119846;28;20475;-70
2023/11/14 08:20:14;;;;;;;17.50;5.70;;;;;;;;;;5110989;27;20552;-70
2023/11/14 08:22:40;;;;;;;16.43;4.50;;;;;;;;;;5110402;27;20530;-68
2023/11/14 08:25:08;;;;;;;23.47;6.57;;;;;;;;;;5110495;28;21195;-70
2023/11/14 08:27:36;;;;;;;25.13;5.60;;;;;;;;;;5122725;27;20453;-72
2023/11/14 08:30:02;;;;;;;13.87;4.67;;;;;;;;;;5104686;27;20527;-71
2023/11/14 08:32:29;;;;;;;26.33;5.93;;;;;;;;;;5117060;28;20998;-71
2023/11/14 08:34:58;;;;;;;21.47;5.73;;;;;;;;;;5113304;28;20867;-70
2023/11/14 08:37:24;;;;;;;15.13;4.87;;;;;;;;;;5107528;28;20539;-68
2023/11/14 08:39:50;;;;;;;11.70;4.57;;;;;;;;;;5120294;28;21076;-70
2023/11/14 08:42:18;;;;;;;15.57;5.40;;;;;;;;;;5113195;27;20478;-71
2023/11/14 08:44:45;;;;;;;11.80;3.67;;;;;;;;;;5112643;27;20537;-71
2023/11/14 08:47:11;;;;;;;19.07;4.80;;;;;;;;;;5096353;28;20514;-68
2023/11/14 08:49:37;;;;;;;9.30;3.90;;;;;;;;;;5114889;27;20466;-68
2023/11/14 08:52:04;;;;;;;17.00;4.50;;;;;;;;;;5120976;27;20545;-71
2023/11/14 08:54:32;;;;;;;11.97;4.43;;;;;;;;;;5119898;28;20522;-70
2023/11/14 08:56:58;;;;;;;15.20;4.57;;;;;;;;;;5118775;27;20554;-69
2023/11/14 08:59:26;;;;;;;15.97;4.30;;;;;;;;;;5110215;28;20532;-71
2023/11/14 09:01:52;;;;;;;15.70;4.67;;;;;;;;;;5110598;28;20467;-70
2023/11/14 09:04:19;;;;;;;16.40;4.60;;;;;;;;;;5111697;27;20461;-70
2023/11/14 09:06:45;;;;;;;19.93;4.50;;;;;;;;;;5109837;27;20497;-69
2023/11/14 09:09:13;;;;;;;12.00;4.00;;;;;;;;;;5108493;28;20947;-70
2023/11/14 09:11:40;;;;;;;19.30;4.70;;;;;;;;;;5116274;27;20457;-71
2023/11/14 09:14:08;;;;;;;15.57;4.97;;;;;;;;;;5121220;27;20489;-69
2023/11/14 09:16:36;;;;;;;25.43;4.30;;;;;;;;;;5109232;28;20454;-69
2023/11/14 09:19:04;;;;;;;20.03;5.10;;;;;;;;;;5114759;28;20521;-71
2023/11/14 09:21:31;;;;;;;13.73;5.00;;;;;;;;;;5114915;27;20455;-70
2023/11/14 09:23:57;;;;;;;17.50;5.20;;;;;;;;;;5108819;28;20450;-70
2023/11/14 09:26:25;;;;;;;17.63;3.80;;;;;;;;;;5094215;28;20953;-71
2023/11/14 09:28:51;;;;;;;20.30;5.40;;;;;;;;;;5108904;27;20532;-72
2023/11/14 09:31:18;;;;;;;15.10;5.13;;;;;;;;;;5104475;28;20473;-71
2023/11/14 09:33:46;;;;;;;14.60;5.37;;;;;;;;;;5102426;28;20482;-74
2023/11/14 09:36:13;;;;;;;22.50;5.33;;;;;;;;;;5123291;27;20454;-70
2023/11/14 09:38:39;;;;;;;16.73;4.57;;;;;;;;;;5111229;27;20482;-73
2023/11/14 09:41:07;;;;;;;13.67;4.60;;;;;;;;;;5114021;28;20453;-72
2023/11/14 09:43:34;;;;;;;17.30;4.83;;;;;;;;;;5112193;28;20504;-68
2023/11/14 09:46:00;;;;;;;14.80;5.17;;;;;;;;;;5113396;27;20475;-71
2023/11/14 09:48:27;;;;;;;18.53;4.83;;;;;;;;;;5115010;27;20967;-71
2023/11/14 09:50:55;;;;;;;16.10;4.80;;;;;;;;;;5107522;28;20478;-70
2023/11/14 09:53:23;;;;;;;19.93;5.00;;;;;;;;;;5124001;27;20583;-70
2023/11/14 09:55:50;;;;;;;16.57;4.80;;;;;;;;;;5117112;28;20457;-70
2023/11/14 09:58:16;;;;;;;13.80;5.10;;;;;;;;;;5116840;28;20442;-72
2023/11/14 10:00:43;;;;;;;16.67;7.10;;;;;;;;;;5109149;28;20992;-72
2023/11/14 10:03:09;;;;;;;11.57;4.37;;;;;;;;;;5107799;27;20447;-72
2023/11/14 10:05:36;;;;;;;10.77;4.73;;;;;;;;;;5104889;27;20870;-71
2023/11/14 10:08:04;;;;;;;19.13;4.67;;;;;;;;;;5110800;28;20893;-70
2023/11/14 10:10:31;;;;;;;13.80;4.80;;;;;;;;;;5112508;28;20444;-69
2023/11/14 10:12:58;;;;;;;18.73;4.97;;;;;;;;;;5104570;27;21032;-72
2023/11/14 10:15:28;;;;;;;13.30;4.40;;;;;;;;;;5097846;28;20485;-71
2023/11/14 10:17:55;;;;;;;23.90;6.50;;;;;;;;;;5112313;27;20453;-72
2023/11/14 10:20:22;;;;;;;13.07;4.57;;;;;;;;;;5111144;28;20497;-71
2023/11/14 10:22:49;;;;;;;12.43;3.80;;;;;;;;;;5114624;28;20471;-71
2023/11/14 10:25:26;;;;;;;15.53;5.43;;;;;;;;;;5104256;28;20511;-71
2023/11/14 10:27:57;;;;;;;14.23;4.30;;;;;;;;;;5104016;28;20963;-72
2023/11/14 10:30:24;;;;;;;22.30;4.20;;;;;;;;;;5117542;28;20464;-71
2023/11/14 10:32:54;;;;;;;12.73;4.17;;;;;;;;;;5108142;27;20517;-72
2023/11/14 10:35:21;;;;;;;15.53;5.60;;;;;;;;;;5105307;28;20553;-72
2023/11/14 10:37:47;;;;;;;15.17;4.73;;;;;;;;;;5114414;27;20523;-69
2023/11/14 10:40:15;;;;;;;16.27;4.30;;;;;;;;;;5114290;28;20525;-71
2023/11/14 10:42:50;;;;;;;9.70;4.00;;;;;;;;;;5114839;28;20438;-71
2023/11/14 10:45:16;;;;;;;18.67;4.60;;;;;;;;;;5100438;28;20510;-70
2023/11/14 10:47:43;;;;;;;11.30;4.03;;;;;;;;;;5107225;27;20518;-69
2023/11/14 10:50:24;;;;;;;20.03;4.57;;;;;;;;;;5122068;27;20936;-71
2023/11/14 10:52:52;;;;;;;21.53;4.63;;;;;;;;;;5117168;28;20450;-71
2023/11/14 10:55:20;;;;;;;16.73;3.90;;;;;;;;;;5123361;27;20581;-72
2023/11/14 10:57:48;;;;;;;28.40;5.97;;;;;;;;;;5118866;28;20494;-71
2023/11/14 11:00:16;;;;;;;11.73;4.00;;;;;;;;;;5118513;28;20448;-72
2023/11/14 11:02:44;;;;;;;13.53;4.20;;;;;;;;;;5118758;28;20442;-72
2023/11/14 11:05:13;;;;;;;11.57;3.90;;;;;;;;;;5115736;28;20450;-72
2023/11/14 11:07:40;;;;;;;22.57;4.20;;;;;;;;;;5112430;28;20445;-73
2023/11/14 11:10:07;;;;;;;14.67;4.00;;;;;;;;;;5112030;28;20447;-72
2023/11/14 11:12:35;;;;;;;21.27;5.77;;;;;;;;;;5124606;27;20442;-69
2023/11/14 11:15:04;;;;;;;12.50;4.40;;;;;;;;;;5116023;28;20581;-73
2023/11/14 11:17:37;;;;;;;13.50;6.00;;;;;;;;;;5113361;27;20450;-70
2023/11/14 11:20:04;;;;;;;12.10;3.53;;;;;;;;;;5119025;28;20449;-70
2023/11/14 11:22:52;;;;;;;13.27;3.80;;;;;;;;;;5112650;28;20482;-70
2023/11/14 11:25:26;;;;;;;17.50;3.77;;;;;;;;;;5123061;27;20484;-72
2023/11/14 11:27:53;;;;;;;12.73;4.33;;;;;;;;;;5116913;27;20539;-69
2023/11/14 11:30:21;;;;;;;21.73;4.70;;;;;;;;;;5118943;28;20815;-70
2023/11/14 11:32:54;;;;;;;13.23;4.53;;;;;;;;;;5110291;28;20499;-70
2023/11/14 11:35:27;;;;;;;16.80;5.33;;;;;;;;;;5118915;27;20486;-69
2023/11/14 11:37:54;;;;;;;22.40;4.57;;;;;;;;;;5120369;27;20481;-71
2023/11/14 11:40:25;;;;;;;14.13;4.60;;;;;;;;;;5123018;27;20478;-69
2023/11/14 11:42:51;;;;;;;17.27;4.97;;;;;;;;;;5122779;27;20445;-71
2023/11/14 11:45:32;;;;;;;14.23;4.07;;;;;;;;;;5117214;27;20534;-70
2023/11/14 11:47:59;;;;;;;17.30;5.30;;;;;;;;;;5113386;28;21047;-68
2023/11/14 11:50:26;;;;;;;16.23;4.40;;;;;;;;;;5108686;28;20484;-71
2023/11/14 11:52:59;;;;;;;11.57;4.90;;;;;;;;;;5124997;27;20444;-70
2023/11/14 11:55:26;;;;;;;12.60;4.80;;;;;;;;;;5116474;27;20486;-69
2023/11/14 11:57:58;;;;;;;16.53;4.77;;;;;;;;;;5114122;27;20457;-69
2023/11/14 12:00:25;;;;;;;11.80;5.10;;;;;;;;;;5124163;27;20481;-70
2023/11/14 12:02:53;;;;;;;14.50;4.80;;;;;;;;;;5122910;27;20482;-70
2023/11/14 12:05:21;;;;;;;9.77;4.47;;;;;;;;;;5109994;28;20451;-70
2023/11/14 12:07:48;;;;;;;18.03;4.83;;;;;;;;;;5118975;27;20516;-67
2023/11/14 12:10:17;;;;;;;16.13;5.80;;;;;;;;;;5116953;28;20505;-70
2023/11/14 12:12:44;;;;;;;10.87;5.80;;;;;;;;;;5113453;28;20456;-69
2023/11/14 12:15:15;;;;;;;18.17;4.40;;;;;;;;;;5122775;27;20509;-71
2023/11/14 12:17:46;;;;;;;14.30;4.90;;;;;;;;;;5106148;28;20515;-70
2023/11/14 12:20:14;;;;;;;13.57;5.60;;;;;;;;;;5117267;27;20458;-71
2023/11/14 12:22:42;;;;;;;11.40;4.93;;;;;;;;;;5111030;28;20460;-68
2023/11/14 12:25:08;;;;;;;9.47;4.20;;;;;;;;;;5108502;28;20451;-72
2023/11/14 12:27:35;;;;;;;11.97;3.87;;;;;;;;;;5110084;28;20443;-68
2023/11/14 12:30:05;;;;;;;25.33;5.00;;;;;;;;;;5102976;28;21086;-70
2023/11/14 12:32:31;;;;;;;16.00;4.63;;;;;;;;;;5105597;27;20533;-70
2023/11/14 12:34:58;;;;;;;12.63;4.00;;;;;;;;;;5108096;27;20518;-71
2023/11/14 12:37:27;;;;;;;16.87;5.50;;;;;;;;;;5111400;27;20486;-70
2023/11/14 12:40:06;;;;;;;19.67;5.40;;;;;;;;;;5112003;27;20470;-72
2023/11/14 12:42:36;;;;;;;11.17;3.83;;;;;;;;;;5117857;28;20446;-71
2023/11/14 12:45:08;;;;;;;16.10;4.73;;;;;;;;;;5123614;27;20485;-67
2023/11/14 12:47:34;;;;;;;20.23;6.23;;;;;;;;;;5117953;27;20459;-70
2023/11/14 12:50:01;;;;;;;11.30;4.47;;;;;;;;;;5108193;28;21015;-70
2023/11/14 12:52:30;;;;;;;15.77;4.77;;;;;;;;;;5114190;28;20485;-71
2023/11/14 12:54:57;;;;;;;17.23;5.30;;;;;;;;;;5105193;27;20519;-73
2023/11/14 12:57:24;;;;;;;16.23;4.60;;;;;;;;;;5109531;27;20486;-70
2023/11/14 12:59:51;;;;;;;10.80;4.80;;;;;;;;;;5122087;27;20466;-69
2023/11/14 13:02:18;;;;;;;17.07;4.53;;;;;;;;;;5113527;27;20446;-71
2023/11/14 13:04:44;;;;;;;10.67;4.53;;;;;;;;;;5115168;28;20493;-70
2023/11/14 13:07:10;;;;;;;15.60;5.03;;;;;;;;;;5119596;27;20488;-71
2023/11/14 13:09:39;;;;;;;14.93;5.10;;;;;;;;;;5114720;27;20483;-70
2023/11/14 13:12:08;;;;;;;11.47;4.33;;;;;;;;;;5118201;27;20546;-69
2023/11/14 13:14:35;;;;;;;16.33;4.97;;;;;;;;;;5114896;28;20901;-71
2023/11/14 13:17:04;;;;;;;14.80;5.23;;;;;;;;;;5110744;28;20476;-70
2023/11/14 13:19:31;;;;;;;14.50;4.33;;;;;;;;;;5109163;27;20454;-71
2023/11/14 13:21:57;;;;;;;8.50;4.70;;;;;;;;;;5118349;27;20462;-68
2023/11/14 13:24:23;;;;;;;21.57;5.23;;;;;;;;;;5112993;27;20497;-68
2023/11/14 13:26:51;;;;;;;12.97;5.27;;;;;;;;;;5108928;28;20479;-69
2023/11/14 13:29:17;;;;;;;15.67;5.30;;;;;;;;;;5115888;27;20491;-70
2023/11/14 13:31:44;;;;;;;14.53;5.17;;;;;;;;;;5115024;27;20481;-70
2023/11/14 13:34:10;;;;;;;15.90;4.53;;;;;;;;;;5103515;28;20482;-70
2023/11/14 13:36:37;;;;;;;16.07;3.93;;;;;;;;;;5113464;27;20487;-69
2023/11/14 13:39:05;;;;;;;13.70;4.13;;;;;;;;;;5105660;27;20508;-70
2023/11/14 13:41:32;;;;;;;10.23;3.73;;;;;;;;;;5112822;28;20439;-71
2023/11/14 13:44:00;;;;;;;14.30;4.50;;;;;;;;;;5112289;28;20447;-71
2023/11/14 13:46:26;;;;;;;10.57;4.07;;;;;;;;;;5110113;28;20489;-70
2023/11/14 13:48:53;;;;;;;8.20;3.77;;;;;;;;;;5104761;27;20443;-69
2023/11/14 13:51:19;;;;;;;16.80;4.20;;;;;;;;;;5122566;27;20507;-70
2023/11/14 13:53:45;;;;;;;16.03;4.53;;;;;;;;;;5114561;27;20505;-70
2023/11/14 13:56:12;;;;;;;11.30;3.67;;;;;;;;;;5115978;27;20481;-69
2023/11/14 13:58:39;;;;;;;10.00;3.80;;;;;;;;;;5109932;28;20213;-70
2023/11/14 14:01:09;;;;;;;11.30;4.90;;;;;;;;;;5105057;27;20447;-70
2023/11/14 14:03:37;;;;;;;8.80;4.07;;;;;;;;;;5116058;27;20531;-72
2023/11/14 14:06:06;;;;;;;10.00;3.97;;;;;;;;;;5112717;27;20798;-70
2023/11/14 14:08:32;;;;;;;10.13;3.77;;;;;;;;;;5119823;27;20525;-68
2023/11/14 14:11:00;;;;;;;6.57;4.60;;;;;;;;;;5105801;28;21293;-70
2023/11/14 14:13:26;;;;;;;10.27;3.80;;;;;;;;;;5122891;27;20459;-72
2023/11/14 14:15:53;;;;;;;10.23;4.30;;;;;;;;;;5109711;27;20497;-68
2023/11/14 14:18:22;;;;;;;8.83;3.43;;;;;;;;;;5113762;27;20464;-69
2023/11/14 14:20:50;;;;;;;15.63;4.43;;;;;;;;;;5110182;28;20461;-71
2023/11/14 14:23:17;;;;;;;11.70;4.77;;;;;;;;;;5114098;28;20458;-70
2023/11/14 14:25:46;;;;;;;12.97;4.10;;;;;;;;;;5108301;28;20462;-71
2023/11/14 14:28:13;;;;;;;15.60;4.40;;;;;;;;;;5108268;27;20459;-71
2023/11/14 14:30:41;;;;;;;11.73;4.10;;;;;;;;;;5102504;28;20460;-71